URKA Airport Information

Runway Information
Runway 04 Length 8202 ft width 138 ft
Elevation 137 ft Threshold 0 ft Heading 42
Runway 22 Length 8202 ft Width 138 ft
Elevation 174 ft Threshold 0 ft Heading 222
Airport Frequencies
Type APP Name ANAPA APP Frequency 118.7 MHZ
Type TWR Name ANAPA KRUG Frequency 119.8 MHZ
Airport Navaids
Type NDB Name Anapa Frequency 443 KHZ
Type NDB Name Anapa Frequency 443 KHZ
Airport Weather Information & NOTAM
ADDS - METARS form results

(2207 UTC 24 January 2022)
Data provider http://aviationweather.gov/metar/data/
 
METAR text: URKA 242200Z VRB01MPS 9999 -SHSN SCT007 BKN028CB M02/M03 Q1021 R22/690342 NOSIG RMK QFE761/1015
Conditions at: URKA (ANAPA/VITIAZEVO , RU) observed 2200 UTC 24 January 2022
Temperature: -2.0°C (28°F)
Dewpoint: -3.0°C (27°F) [RH = 93%]
Pressure (altimeter): 30.15 inches Hg (1021.0 mb)
Winds: variable direction winds at 2 MPH (2 knots; 1.0 m/s)
Visibility: 6 or more miles (10+ km)
Ceiling: 2800 feet AGL
Clouds: scattered clouds at 700 feet AGL
broken clouds at 2800 feet AGL
Weather: -SHSN  (light snow showers)

METAR text: URKA 242130Z VRB01MPS 9999 -SHSN BKN005 BKN///CB M02/M02 Q1021 R22/690342 NOSIG RMK QFE761/1015
Conditions at: URKA (ANAPA/VITIAZEVO , RU) observed 2130 UTC 24 January 2022
Temperature: -2.0°C (28°F)
Dewpoint: -2.0°C (28°F) [RH = 100%]
Pressure (altimeter): 30.15 inches Hg (1021.0 mb)
Winds: variable direction winds at 2 MPH (2 knots; 1.0 m/s)
Visibility: 6 or more miles (10+ km)
Ceiling: 500 feet AGL
Clouds: broken clouds at 500 feet AGL
Weather: -SHSN  (light snow showers)

Forecast for: URKA (ANAPA/VITIAZEVO , RU)
Text: TAF URKA 241956Z 2421/2521 28003G08MPS 6000 SCT011 BKN020CB
Forecast period: 2100 UTC 24 January 2022 to 2100 UTC 25 January 2022
Forecast type: FROM: standard forecast or significant change
Winds: from the W (280 degrees) at 7 MPH (6 knots; 3.1 m/s)
gusting to 18 MPH (16 knots; 8.2 m/s)
Visibility: 4 miles (6 km)
Ceiling: 2000 feet AGL
Clouds: scattered clouds at 1100 feet AGL
broken clouds at 2000 feet AGL
Weather: no significant weather forecast for this period
Text: TEMPO 2421/2506 0500 -SHSN FZFG BKN003 BKN016CB
Forecast period: 2100 UTC 24 January 2022 to 0600 UTC 25 January 2022
Forecast type: TEMPORARY: The following changes expected for less than half the time period
Visibility: 0.31 miles (0.50 km)
Ceiling: 300 feet AGL
Clouds: broken clouds at 300 feet AGL
broken clouds at 1600 feet AGL
Weather: -SHSN FZFG  (light snow showers, freezing fog)
Text: TEMPO 2506/2521 0500 +SHSNRA BKN003 BKN016CB
Forecast period: 0600 to 2100 UTC 25 January 2022
Forecast type: TEMPORARY: The following changes expected for less than half the time period
Visibility: 0.31 miles (0.50 km)
Ceiling: 300 feet AGL
Clouds: broken clouds at 300 feet AGL
broken clouds at 1600 feet AGL
Weather: +SHSN +SHRA  (heavy snow showers, heavy rain showers)